sensor_id;sensor_type;location;lat;lon;timestamp;temperature;humidity
40249;DHT22;25969;49.970;11.062;2023-05-10T04:10:15;13.10;99.90
40249;DHT22;25969;49.970;11.062;2023-05-10T04:20:16;13.10;99.90
40249;DHT22;25969;49.970;11.062;2023-05-10T04:30:17;13.10;99.90
40249;DHT22;25969;49.970;11.062;2023-05-10T04:40:18;13.00;99.90
40249;DHT22;25969;49.970;11.062;2023-05-10T04:50:19;12.70;99.90
40249;DHT22;25969;49.970;11.062;2023-05-10T05:00:19;12.60;99.90
40249;DHT22;25969;49.970;11.062;2023-05-10T05:10:20;12.70;99.90
40249;DHT22;25969;49.970;11.062;2023-05-10T05:20:21;12.70;99.90
40249;DHT22;25969;49.970;11.062;2023-05-10T05:30:21;12.60;99.90
40249;DHT22;25969;49.970;11.062;2023-05-10T05:40:22;12.60;99.90
40249;DHT22;25969;49.970;11.062;2023-05-10T05:50:23;12.80;99.90
40249;DHT22;25969;49.970;11.062;2023-05-10T06:00:23;12.80;99.90
40249;DHT22;25969;49.970;11.062;2023-05-10T06:10:24;12.70;99.90
40249;DHT22;25969;49.970;11.062;2023-05-10T06:20:25;12.90;99.90
40249;DHT22;25969;49.970;11.062;2023-05-10T06:30:26;13.00;99.90
40249;DHT22;25969;49.970;11.062;2023-05-10T06:40:28;13.30;99.90
40249;DHT22;25969;49.970;11.062;2023-05-10T06:50:29;13.50;99.90
40249;DHT22;25969;49.970;11.062;2023-05-10T07:00:30;13.80;99.90
40249;DHT22;25969;49.970;11.062;2023-05-10T07:10:30;14.00;99.90
40249;DHT22;25969;49.970;11.062;2023-05-10T07:20:31;14.00;99.90
40249;DHT22;25969;49.970;11.062;2023-05-10T07:30:32;14.20;99.90
40249;DHT22;25969;49.970;11.062;2023-05-10T07:40:33;15.00;99.90
40249;DHT22;25969;49.970;11.062;2023-05-10T07:50:33;15.30;99.90
40249;DHT22;25969;49.970;11.062;2023-05-10T08:00:34;14.50;99.90
40249;DHT22;25969;49.970;11.062;2023-05-10T08:10:35;14.70;99.90
40249;DHT22;25969;49.970;11.062;2023-05-10T08:20:36;17.00;99.90
40249;DHT22;25969;49.970;11.062;2023-05-10T08:30:36;17.30;99.90
40249;DHT22;25969;49.970;11.062;2023-05-10T08:40:37;16.00;99.90
40249;DHT22;25969;49.970;11.062;2023-05-10T08:50:40;15.80;99.90
40249;DHT22;25969;49.970;11.062;2023-05-10T09:00:41;15.30;99.90
40249;DHT22;25969;49.970;11.062;2023-05-10T09:10:43;16.20;99.90
40249;DHT22;25969;49.970;11.062;2023-05-10T09:20:44;16.70;99.90
40249;DHT22;25969;49.970;11.062;2023-05-10T09:30:53;17.60;97.90
40249;DHT22;25969;49.970;11.062;2023-05-10T09:40:53;18.50;95.60
40249;DHT22;25969;49.970;11.062;2023-05-10T09:50:57;17.80;95.30
40249;DHT22;25969;49.970;11.062;2023-05-10T10:00:58;15.60;99.90
40249;DHT22;25969;49.970;11.062;2023-05-10T10:10:59;14.20;99.90
40249;DHT22;25969;49.970;11.062;2023-05-10T10:21:00;14.70;99.90
40249;DHT22;25969;49.970;11.062;2023-05-10T10:41:34;18.00;99.90
40249;DHT22;25969;49.970;11.062;2023-05-10T10:51:39;20.30;95.40
40249;DHT22;25969;49.970;11.062;2023-05-10T11:01:41;21.60;93.10
40249;DHT22;25969;49.970;11.062;2023-05-10T11:11:52;20.10;90.30
40249;DHT22;25969;49.970;11.062;2023-05-10T11:32:05;15.70;99.90
40249;DHT22;25969;49.970;11.062;2023-05-10T11:42:08;17.10;99.90
40249;DHT22;25969;49.970;11.062;2023-05-10T11:52:11;18.90;99.90
40249;DHT22;25969;49.970;11.062;2023-05-10T12:02:15;19.10;98.20
40249;DHT22;25969;49.970;11.062;2023-05-10T12:12:16;18.60;98.20
40249;DHT22;25969;49.970;11.062;2023-05-10T12:22:20;19.30;96.50
40249;DHT22;25969;49.970;11.062;2023-05-10T12:32:21;19.90;96.60
40249;DHT22;25969;49.970;11.062;2023-05-10T12:42:38;21.60;90.40
40249;DHT22;25969;49.970;11.062;2023-05-10T12:52:39;22.40;83.60
40249;DHT22;25969;49.970;11.062;2023-05-10T13:02:40;21.10;84.30
40249;DHT22;25969;49.970;11.062;2023-05-10T13:12:41;19.80;90.40
40249;DHT22;25969;49.970;11.062;2023-05-10T13:22:43;18.30;92.20
40249;DHT22;25969;49.970;11.062;2023-05-10T13:32:44;18.10;92.30
40249;DHT22;25969;49.970;11.062;2023-05-10T13:42:46;19.00;90.90
40249;DHT22;25969;49.970;11.062;2023-05-10T13:52:46;19.80;89.70
40249;DHT22;25969;49.970;11.062;2023-05-10T14:02:47;20.00;84.90
40249;DHT22;25969;49.970;11.062;2023-05-10T14:12:49;20.70;81.60
40249;DHT22;25969;49.970;11.062;2023-05-10T14:22:50;19.70;83.30
40249;DHT22;25969;49.970;11.062;2023-05-10T14:32:51;18.70;87.20
40249;DHT22;25969;49.970;11.062;2023-05-10T14:42:54;16.80;93.60
40249;DHT22;25969;49.970;11.062;2023-05-10T14:52:55;15.50;99.90
40249;DHT22;25969;49.970;11.062;2023-05-10T15:02:55;15.10;99.90
40249;DHT22;25969;49.970;11.062;2023-05-10T15:12:56;15.20;99.90
40249;DHT22;25969;49.970;11.062;2023-05-10T15:22:57;15.60;99.90
40249;DHT22;25969;49.970;11.062;2023-05-10T15:32:58;16.30;99.90
40249;DHT22;25969;49.970;11.062;2023-05-10T15:42:58;16.40;99.90
40249;DHT22;25969;49.970;11.062;2023-05-10T15:52:59;16.30;99.90
40249;DHT22;25969;49.970;11.062;2023-05-10T16:03:00;15.80;99.90
40249;DHT22;25969;49.970;11.062;2023-05-10T16:13:00;15.50;99.90
40249;DHT22;25969;49.970;11.062;2023-05-10T16:23:05;15.40;99.90
40249;DHT22;25969;49.970;11.062;2023-05-10T16:33:06;15.50;99.90
40249;DHT22;25969;49.970;11.062;2023-05-10T16:43:06;15.50;99.90
40249;DHT22;25969;49.970;11.062;2023-05-10T16:53:07;15.10;99.90
40249;DHT22;25969;49.970;11.062;2023-05-10T17:03:08;15.00;99.90
40249;DHT22;25969;49.970;11.062;2023-05-10T17:13:08;14.80;99.90
40249;DHT22;25969;49.970;11.062;2023-05-10T17:23:10;14.70;99.90
40249;DHT22;25969;49.970;11.062;2023-05-10T17:33:11;14.60;99.90
40249;DHT22;25969;49.970;11.062;2023-05-10T17:43:11;14.30;99.90
40249;DHT22;25969;49.970;11.062;2023-05-10T17:53:12;14.20;99.90
40249;DHT22;25969;49.970;11.062;2023-05-10T18:03:13;13.90;99.90
40249;DHT22;25969;49.970;11.062;2023-05-10T18:13:15;13.50;99.90
40249;DHT22;25969;49.970;11.062;2023-05-10T18:23:16;13.20;99.90
40249;DHT22;25969;49.970;11.062;2023-05-10T18:33:17;12.90;99.90
40249;DHT22;25969;49.970;11.062;2023-05-10T18:43:17;12.80;99.90
40249;DHT22;25969;49.970;11.062;2023-05-10T18:53:18;12.70;99.90
40249;DHT22;25969;49.970;11.062;2023-05-10T19:03:20;12.70;99.90
40249;DHT22;25969;49.970;11.062;2023-05-10T19:13:21;12.40;99.90
40249;DHT22;25969;49.970;11.062;2023-05-10T19:23:21;12.20;99.90
40249;DHT22;25969;49.970;11.062;2023-05-10T19:33:22;12.20;99.90
40249;DHT22;25969;49.970;11.062;2023-05-10T19:43:24;12.20;99.90
40249;DHT22;25969;49.970;11.062;2023-05-10T19:53:26;12.10;99.90
40249;DHT22;25969;49.970;11.062;2023-05-10T20:03:27;12.00;99.90
40249;DHT22;25969;49.970;11.062;2023-05-10T20:13:28;12.00;99.90
40249;DHT22;25969;49.970;11.062;2023-05-10T20:23:29;11.90;99.90
40249;DHT22;25969;49.970;11.062;2023-05-10T20:33:30;11.80;99.90
40249;DHT22;25969;49.970;11.062;2023-05-10T20:43:31;11.80;99.90
40249;DHT22;25969;49.970;11.062;2023-05-10T20:53:32;11.80;99.90
40249;DHT22;25969;49.970;11.062;2023-05-10T21:03:33;11.90;99.90
40249;DHT22;25969;49.970;11.062;2023-05-10T21:13:33;11.90;99.90
40249;DHT22;25969;49.970;11.062;2023-05-10T21:23:34;11.80;99.90
40249;DHT22;25969;49.970;11.062;2023-05-10T21:33:35;11.90;99.90
40249;DHT22;25969;49.970;11.062;2023-05-10T21:43:36;11.90;99.90
40249;DHT22;25969;49.970;11.062;2023-05-10T21:53:37;12.00;99.90
